sensor_id;sensor_type;location;lat;lon;timestamp;P1;durP1;ratioP1;P2;durP2;ratioP2
33094;SDS011;19459;53.044;8.910;2024-02-21T00:01:01;54.33;;;24.15;;
33094;SDS011;19459;53.044;8.910;2024-02-21T00:03:27;52.47;;;23.90;;
33094;SDS011;19459;53.044;8.910;2024-02-21T00:05:52;45.97;;;23.15;;
33094;SDS011;19459;53.044;8.910;2024-02-21T00:08:18;49.28;;;22.38;;
33094;SDS011;19459;53.044;8.910;2024-02-21T00:10:44;45.58;;;23.65;;
33094;SDS011;19459;53.044;8.910;2024-02-21T00:13:10;51.90;;;23.58;;
33094;SDS011;19459;53.044;8.910;2024-02-21T00:15:35;47.40;;;22.60;;
33094;SDS011;19459;53.044;8.910;2024-02-21T00:18:04;52.10;;;23.27;;
33094;SDS011;19459;53.044;8.910;2024-02-21T00:20:30;51.58;;;24.15;;
33094;SDS011;19459;53.044;8.910;2024-02-21T00:22:56;43.45;;;24.65;;
33094;SDS011;19459;53.044;8.910;2024-02-21T00:25:21;49.28;;;24.55;;
33094;SDS011;19459;53.044;8.910;2024-02-21T00:27:47;70.13;;;25.83;;
33094;SDS011;19459;53.044;8.910;2024-02-21T00:30:13;57.05;;;26.45;;
33094;SDS011;19459;53.044;8.910;2024-02-21T00:32:39;53.10;;;24.98;;
33094;SDS011;19459;53.044;8.910;2024-02-21T00:35:05;51.83;;;24.70;;
33094;SDS011;19459;53.044;8.910;2024-02-21T00:37:31;50.80;;;25.17;;
33094;SDS011;19459;53.044;8.910;2024-02-21T00:39:57;56.80;;;27.52;;
33094;SDS011;19459;53.044;8.910;2024-02-21T00:42:22;51.20;;;26.40;;
33094;SDS011;19459;53.044;8.910;2024-02-21T00:44:48;61.65;;;28.52;;
33094;SDS011;19459;53.044;8.910;2024-02-21T00:47:14;62.78;;;30.63;;
33094;SDS011;19459;53.044;8.910;2024-02-21T00:49:40;63.95;;;29.38;;
33094;SDS011;19459;53.044;8.910;2024-02-21T00:52:06;59.75;;;28.67;;
33094;SDS011;19459;53.044;8.910;2024-02-21T00:54:31;55.88;;;27.17;;
33094;SDS011;19459;53.044;8.910;2024-02-21T00:56:57;55.33;;;27.45;;
33094;SDS011;19459;53.044;8.910;2024-02-21T00:59:23;78.07;;;28.85;;
33094;SDS011;19459;53.044;8.910;2024-02-21T01:01:49;64.40;;;26.02;;
33094;SDS011;19459;53.044;8.910;2024-02-21T01:04:14;51.13;;;26.30;;
33094;SDS011;19459;53.044;8.910;2024-02-21T01:06:40;65.18;;;27.58;;
33094;SDS011;19459;53.044;8.910;2024-02-21T01:09:09;67.63;;;28.27;;
33094;SDS011;19459;53.044;8.910;2024-02-21T01:11:35;57.55;;;25.50;;
33094;SDS011;19459;53.044;8.910;2024-02-21T01:14:02;61.75;;;27.10;;
33094;SDS011;19459;53.044;8.910;2024-02-21T01:16:28;60.83;;;27.48;;
33094;SDS011;19459;53.044;8.910;2024-02-21T01:18:53;59.88;;;26.73;;
33094;SDS011;19459;53.044;8.910;2024-02-21T01:21:19;44.63;;;25.23;;
33094;SDS011;19459;53.044;8.910;2024-02-21T01:23:45;58.45;;;25.92;;
33094;SDS011;19459;53.044;8.910;2024-02-21T01:26:11;52.92;;;25.33;;
33094;SDS011;19459;53.044;8.910;2024-02-21T01:28:38;69.13;;;28.02;;
33094;SDS011;19459;53.044;8.910;2024-02-21T01:31:05;57.60;;;26.55;;
33094;SDS011;19459;53.044;8.910;2024-02-21T01:33:31;58.33;;;28.33;;
33094;SDS011;19459;53.044;8.910;2024-02-21T01:36:04;59.45;;;26.95;;
33094;SDS011;19459;53.044;8.910;2024-02-21T01:38:33;58.35;;;26.85;;
33094;SDS011;19459;53.044;8.910;2024-02-21T01:40:59;55.05;;;26.02;;
33094;SDS011;19459;53.044;8.910;2024-02-21T01:43:24;59.15;;;28.35;;
33094;SDS011;19459;53.044;8.910;2024-02-21T01:45:52;68.68;;;27.73;;
33094;SDS011;19459;53.044;8.910;2024-02-21T01:48:20;68.60;;;27.80;;
33094;SDS011;19459;53.044;8.910;2024-02-21T01:50:49;54.97;;;27.38;;
33094;SDS011;19459;53.044;8.910;2024-02-21T01:53:22;55.25;;;24.83;;
33094;SDS011;19459;53.044;8.910;2024-02-21T01:55:53;53.40;;;25.33;;
33094;SDS011;19459;53.044;8.910;2024-02-21T01:58:19;56.50;;;27.92;;
33094;SDS011;19459;53.044;8.910;2024-02-21T02:00:45;55.58;;;25.00;;
33094;SDS011;19459;53.044;8.910;2024-02-21T02:03:15;49.63;;;25.30;;
33094;SDS011;19459;53.044;8.910;2024-02-21T02:05:42;58.90;;;25.98;;
33094;SDS011;19459;53.044;8.910;2024-02-21T02:08:14;58.45;;;26.38;;
33094;SDS011;19459;53.044;8.910;2024-02-21T02:10:44;53.05;;;26.88;;
33094;SDS011;19459;53.044;8.910;2024-02-21T02:13:11;55.20;;;26.58;;
33094;SDS011;19459;53.044;8.910;2024-02-21T02:15:44;64.18;;;27.05;;
33094;SDS011;19459;53.044;8.910;2024-02-21T02:18:12;59.17;;;26.75;;
33094;SDS011;19459;53.044;8.910;2024-02-21T02:20:40;63.00;;;28.27;;
33094;SDS011;19459;53.044;8.910;2024-02-21T02:23:10;54.03;;;26.08;;
33094;SDS011;19459;53.044;8.910;2024-02-21T02:25:59;54.42;;;25.95;;
33094;SDS011;19459;53.044;8.910;2024-02-21T02:28:28;53.83;;;27.70;;
33094;SDS011;19459;53.044;8.910;2024-02-21T02:30:54;57.03;;;26.35;;
33094;SDS011;19459;53.044;8.910;2024-02-21T02:33:20;56.78;;;26.50;;
33094;SDS011;19459;53.044;8.910;2024-02-21T02:35:46;56.75;;;26.15;;
33094;SDS011;19459;53.044;8.910;2024-02-21T02:38:12;54.08;;;24.83;;
33094;SDS011;19459;53.044;8.910;2024-02-21T02:40:38;53.20;;;25.27;;
33094;SDS011;19459;53.044;8.910;2024-02-21T02:43:05;49.80;;;24.15;;
33094;SDS011;19459;53.044;8.910;2024-02-21T02:45:32;61.47;;;26.30;;
33094;SDS011;19459;53.044;8.910;2024-02-21T02:47:58;62.88;;;27.17;;
33094;SDS011;19459;53.044;8.910;2024-02-21T02:50:24;61.28;;;25.13;;
33094;SDS011;19459;53.044;8.910;2024-02-21T02:52:51;47.60;;;24.73;;
33094;SDS011;19459;53.044;8.910;2024-02-21T02:55:18;55.35;;;25.63;;
33094;SDS011;19459;53.044;8.910;2024-02-21T02:57:44;53.10;;;25.10;;
33094;SDS011;19459;53.044;8.910;2024-02-21T03:00:10;48.85;;;26.17;;
33094;SDS011;19459;53.044;8.910;2024-02-21T03:02:37;66.13;;;26.85;;
33094;SDS011;19459;53.044;8.910;2024-02-21T03:05:15;51.90;;;25.15;;
33094;SDS011;19459;53.044;8.910;2024-02-21T03:07:43;60.78;;;24.88;;
33094;SDS011;19459;53.044;8.910;2024-02-21T03:10:10;63.75;;;27.02;;
33094;SDS011;19459;53.044;8.910;2024-02-21T03:12:36;53.20;;;25.83;;
33094;SDS011;19459;53.044;8.910;2024-02-21T03:15:02;54.97;;;26.15;;
33094;SDS011;19459;53.044;8.910;2024-02-21T03:17:29;50.00;;;26.13;;
33094;SDS011;19459;53.044;8.910;2024-02-21T03:19:56;54.83;;;24.35;;
33094;SDS011;19459;53.044;8.910;2024-02-21T03:22:22;52.22;;;26.27;;
33094;SDS011;19459;53.044;8.910;2024-02-21T03:24:48;46.75;;;24.48;;
33094;SDS011;19459;53.044;8.910;2024-02-21T03:27:14;46.13;;;23.73;;
33094;SDS011;19459;53.044;8.910;2024-02-21T03:29:40;43.58;;;26.38;;
33094;SDS011;19459;53.044;8.910;2024-02-21T03:32:06;53.67;;;26.85;;
33094;SDS011;19459;53.044;8.910;2024-02-21T03:34:31;48.92;;;25.33;;
33094;SDS011;19459;53.044;8.910;2024-02-21T03:36:57;51.45;;;26.08;;
33094;SDS011;19459;53.044;8.910;2024-02-21T03:39:24;51.47;;;25.00;;
33094;SDS011;19459;53.044;8.910;2024-02-21T03:41:50;53.90;;;26.38;;
33094;SDS011;19459;53.044;8.910;2024-02-21T03:44:16;46.05;;;24.67;;
33094;SDS011;19459;53.044;8.910;2024-02-21T03:46:42;48.85;;;26.60;;
33094;SDS011;19459;53.044;8.910;2024-02-21T03:49:07;52.38;;;25.83;;
33094;SDS011;19459;53.044;8.910;2024-02-21T03:51:33;50.53;;;24.20;;
33094;SDS011;19459;53.044;8.910;2024-02-21T03:53:59;51.10;;;24.65;;
33094;SDS011;19459;53.044;8.910;2024-02-21T03:56:25;60.45;;;27.15;;
33094;SDS011;19459;53.044;8.910;2024-02-21T03:58:50;52.45;;;26.27;;
33094;SDS011;19459;53.044;8.910;2024-02-21T04:01:16;53.97;;;25.50;;
33094;SDS011;19459;53.044;8.910;2024-02-21T04:03:43;54.63;;;27.35;;
33094;SDS011;19459;53.044;8.910;2024-02-21T04:06:09;63.05;;;27.48;;
33094;SDS011;19459;53.044;8.910;2024-02-21T04:08:35;54.05;;;29.52;;
33094;SDS011;19459;53.044;8.910;2024-02-21T04:11:01;48.55;;;25.25;;
33094;SDS011;19459;53.044;8.910;2024-02-21T04:13:27;58.67;;;28.27;;
33094;SDS011;19459;53.044;8.910;2024-02-21T04:15:53;56.78;;;29.25;;
33094;SDS011;19459;53.044;8.910;2024-02-21T04:18:19;52.08;;;27.48;;
33094;SDS011;19459;53.044;8.910;2024-02-21T04:20:44;61.55;;;27.48;;
33094;SDS011;19459;53.044;8.910;2024-02-21T04:23:10;59.40;;;27.60;;
33094;SDS011;19459;53.044;8.910;2024-02-21T04:25:36;60.53;;;27.25;;
33094;SDS011;19459;53.044;8.910;2024-02-21T04:28:02;52.13;;;27.40;;
33094;SDS011;19459;53.044;8.910;2024-02-21T04:30:28;51.70;;;27.02;;
33094;SDS011;19459;53.044;8.910;2024-02-21T04:32:54;51.03;;;26.67;;
33094;SDS011;19459;53.044;8.910;2024-02-21T04:35:20;50.63;;;26.52;;
33094;SDS011;19459;53.044;8.910;2024-02-21T04:37:46;57.83;;;28.48;;
33094;SDS011;19459;53.044;8.910;2024-02-21T04:40:11;56.78;;;28.23;;
33094;SDS011;19459;53.044;8.910;2024-02-21T04:42:39;50.45;;;25.98;;
33094;SDS011;19459;53.044;8.910;2024-02-21T04:45:05;58.35;;;27.60;;
33094;SDS011;19459;53.044;8.910;2024-02-21T04:47:31;57.63;;;28.00;;
33094;SDS011;19459;53.044;8.910;2024-02-21T04:49:57;51.97;;;26.83;;
33094;SDS011;19459;53.044;8.910;2024-02-21T04:52:23;51.30;;;26.73;;
33094;SDS011;19459;53.044;8.910;2024-02-21T04:54:48;49.42;;;27.55;;
33094;SDS011;19459;53.044;8.910;2024-02-21T04:57:15;54.15;;;27.48;;
33094;SDS011;19459;53.044;8.910;2024-02-21T04:59:43;47.63;;;26.23;;
33094;SDS011;19459;53.044;8.910;2024-02-21T05:02:10;51.08;;;25.98;;
33094;SDS011;19459;53.044;8.910;2024-02-21T05:04:36;49.58;;;26.42;;
33094;SDS011;19459;53.044;8.910;2024-02-21T05:07:03;47.95;;;26.63;;
33094;SDS011;19459;53.044;8.910;2024-02-21T05:09:30;49.60;;;26.08;;
33094;SDS011;19459;53.044;8.910;2024-02-21T05:11:56;52.50;;;24.88;;
33094;SDS011;19459;53.044;8.910;2024-02-21T05:14:23;48.78;;;25.70;;
33094;SDS011;19459;53.044;8.910;2024-02-21T05:16:49;48.05;;;23.55;;
33094;SDS011;19459;53.044;8.910;2024-02-21T05:19:14;48.75;;;26.85;;
33094;SDS011;19459;53.044;8.910;2024-02-21T05:21:40;45.20;;;24.40;;
33094;SDS011;19459;53.044;8.910;2024-02-21T05:24:06;52.67;;;25.15;;
33094;SDS011;19459;53.044;8.910;2024-02-21T05:26:32;38.95;;;21.88;;
33094;SDS011;19459;53.044;8.910;2024-02-21T05:28:57;49.42;;;25.25;;
33094;SDS011;19459;53.044;8.910;2024-02-21T05:31:24;44.47;;;24.33;;
33094;SDS011;19459;53.044;8.910;2024-02-21T05:33:50;40.22;;;22.52;;
33094;SDS011;19459;53.044;8.910;2024-02-21T05:36:16;44.60;;;25.25;;
33094;SDS011;19459;53.044;8.910;2024-02-21T05:38:42;43.67;;;23.45;;
33094;SDS011;19459;53.044;8.910;2024-02-21T05:41:08;45.72;;;23.10;;
33094;SDS011;19459;53.044;8.910;2024-02-21T05:43:33;39.50;;;21.25;;
33094;SDS011;19459;53.044;8.910;2024-02-21T05:45:59;50.13;;;22.83;;
33094;SDS011;19459;53.044;8.910;2024-02-21T05:48:25;40.30;;;22.30;;
33094;SDS011;19459;53.044;8.910;2024-02-21T05:50:51;39.33;;;24.05;;
33094;SDS011;19459;53.044;8.910;2024-02-21T05:53:16;37.67;;;21.98;;
33094;SDS011;19459;53.044;8.910;2024-02-21T05:55:42;40.33;;;20.33;;
33094;SDS011;19459;53.044;8.910;2024-02-21T05:58:08;41.35;;;21.15;;
33094;SDS011;19459;53.044;8.910;2024-02-21T06:00:38;38.92;;;21.52;;
33094;SDS011;19459;53.044;8.910;2024-02-21T06:03:04;37.08;;;22.42;;
33094;SDS011;19459;53.044;8.910;2024-02-21T06:05:30;38.53;;;20.83;;
33094;SDS011;19459;53.044;8.910;2024-02-21T06:07:57;46.35;;;23.17;;
33094;SDS011;19459;53.044;8.910;2024-02-21T06:10:22;37.78;;;22.20;;
33094;SDS011;19459;53.044;8.910;2024-02-21T06:12:48;43.40;;;22.33;;
33094;SDS011;19459;53.044;8.910;2024-02-21T06:15:14;36.05;;;21.30;;
33094;SDS011;19459;53.044;8.910;2024-02-21T06:17:40;36.53;;;22.80;;
33094;SDS011;19459;53.044;8.910;2024-02-21T06:20:06;34.83;;;20.67;;
33094;SDS011;19459;53.044;8.910;2024-02-21T06:22:32;34.97;;;19.08;;
33094;SDS011;19459;53.044;8.910;2024-02-21T06:24:58;34.88;;;20.45;;
33094;SDS011;19459;53.044;8.910;2024-02-21T06:27:24;34.88;;;18.67;;
33094;SDS011;19459;53.044;8.910;2024-02-21T06:29:50;36.50;;;21.20;;
33094;SDS011;19459;53.044;8.910;2024-02-21T06:32:16;38.38;;;20.98;;
33094;SDS011;19459;53.044;8.910;2024-02-21T06:34:42;41.45;;;21.40;;
33094;SDS011;19459;53.044;8.910;2024-02-21T06:37:08;40.65;;;21.75;;
33094;SDS011;19459;53.044;8.910;2024-02-21T06:39:34;37.97;;;21.73;;
33094;SDS011;19459;53.044;8.910;2024-02-21T06:42:02;37.35;;;21.08;;
33094;SDS011;19459;53.044;8.910;2024-02-21T06:44:28;45.03;;;22.23;;
33094;SDS011;19459;53.044;8.910;2024-02-21T06:46:54;40.97;;;22.98;;
33094;SDS011;19459;53.044;8.910;2024-02-21T06:49:20;44.58;;;23.50;;
33094;SDS011;19459;53.044;8.910;2024-02-21T06:51:46;42.00;;;21.55;;
33094;SDS011;19459;53.044;8.910;2024-02-21T06:54:12;40.38;;;22.52;;
33094;SDS011;19459;53.044;8.910;2024-02-21T06:56:39;41.63;;;23.25;;
33094;SDS011;19459;53.044;8.910;2024-02-21T06:59:05;45.70;;;23.80;;
33094;SDS011;19459;53.044;8.910;2024-02-21T07:01:31;44.40;;;23.63;;
33094;SDS011;19459;53.044;8.910;2024-02-21T07:03:57;38.08;;;22.08;;
33094;SDS011;19459;53.044;8.910;2024-02-21T07:06:23;41.58;;;22.30;;
33094;SDS011;19459;53.044;8.910;2024-02-21T07:08:49;48.15;;;24.75;;
33094;SDS011;19459;53.044;8.910;2024-02-21T07:11:15;40.17;;;22.90;;
33094;SDS011;19459;53.044;8.910;2024-02-21T07:13:41;40.72;;;22.95;;
33094;SDS011;19459;53.044;8.910;2024-02-21T07:16:07;46.40;;;23.98;;
33094;SDS011;19459;53.044;8.910;2024-02-21T07:18:33;45.20;;;24.92;;
33094;SDS011;19459;53.044;8.910;2024-02-21T07:20:59;45.05;;;25.35;;
33094;SDS011;19459;53.044;8.910;2024-02-21T07:23:25;45.70;;;23.90;;
33094;SDS011;19459;53.044;8.910;2024-02-21T07:25:51;43.05;;;23.98;;
33094;SDS011;19459;53.044;8.910;2024-02-21T07:28:16;47.70;;;24.40;;
33094;SDS011;19459;53.044;8.910;2024-02-21T07:30:42;41.85;;;24.27;;
33094;SDS011;19459;53.044;8.910;2024-02-21T07:33:09;47.28;;;26.10;;
33094;SDS011;19459;53.044;8.910;2024-02-21T07:35:35;45.53;;;26.00;;
33094;SDS011;19459;53.044;8.910;2024-02-21T07:38:05;50.95;;;25.88;;
33094;SDS011;19459;53.044;8.910;2024-02-21T07:40:32;42.30;;;26.05;;
33094;SDS011;19459;53.044;8.910;2024-02-21T07:42:58;57.70;;;27.23;;
33094;SDS011;19459;53.044;8.910;2024-02-21T07:45:24;48.97;;;25.98;;
33094;SDS011;19459;53.044;8.910;2024-02-21T07:47:50;53.20;;;26.38;;
33094;SDS011;19459;53.044;8.910;2024-02-21T07:50:16;49.85;;;26.13;;
33094;SDS011;19459;53.044;8.910;2024-02-21T07:52:42;50.67;;;27.52;;
33094;SDS011;19459;53.044;8.910;2024-02-21T07:55:08;51.60;;;27.83;;
33094;SDS011;19459;53.044;8.910;2024-02-21T07:57:35;53.42;;;27.45;;
33094;SDS011;19459;53.044;8.910;2024-02-21T08:00:01;62.05;;;30.73;;
33094;SDS011;19459;53.044;8.910;2024-02-21T08:02:29;54.45;;;30.23;;
33094;SDS011;19459;53.044;8.910;2024-02-21T08:04:55;60.85;;;30.60;;
33094;SDS011;19459;53.044;8.910;2024-02-21T08:07:21;66.55;;;31.55;;
33094;SDS011;19459;53.044;8.910;2024-02-21T08:09:46;78.57;;;31.15;;
33094;SDS011;19459;53.044;8.910;2024-02-21T08:12:12;70.88;;;32.00;;
33094;SDS011;19459;53.044;8.910;2024-02-21T08:14:38;63.70;;;30.42;;
33094;SDS011;19459;53.044;8.910;2024-02-21T08:17:04;62.85;;;31.08;;
33094;SDS011;19459;53.044;8.910;2024-02-21T08:19:30;65.93;;;31.80;;
33094;SDS011;19459;53.044;8.910;2024-02-21T08:21:56;71.25;;;32.60;;
33094;SDS011;19459;53.044;8.910;2024-02-21T08:24:21;63.65;;;30.33;;
33094;SDS011;19459;53.044;8.910;2024-02-21T08:26:48;83.32;;;31.05;;
33094;SDS011;19459;53.044;8.910;2024-02-21T08:29:13;60.72;;;29.17;;
33094;SDS011;19459;53.044;8.910;2024-02-21T08:31:39;63.63;;;32.38;;
33094;SDS011;19459;53.044;8.910;2024-02-21T08:34:05;66.03;;;32.55;;
33094;SDS011;19459;53.044;8.910;2024-02-21T08:36:34;70.70;;;30.63;;
33094;SDS011;19459;53.044;8.910;2024-02-21T08:39:01;73.43;;;30.15;;
33094;SDS011;19459;53.044;8.910;2024-02-21T08:41:30;71.53;;;30.95;;
33094;SDS011;19459;53.044;8.910;2024-02-21T08:43:57;62.47;;;32.25;;
33094;SDS011;19459;53.044;8.910;2024-02-21T08:46:23;62.05;;;29.75;;
33094;SDS011;19459;53.044;8.910;2024-02-21T08:48:52;63.00;;;28.17;;
33094;SDS011;19459;53.044;8.910;2024-02-21T08:51:19;61.97;;;28.23;;
33094;SDS011;19459;53.044;8.910;2024-02-21T08:53:48;58.13;;;28.45;;
33094;SDS011;19459;53.044;8.910;2024-02-21T08:56:14;67.65;;;28.38;;
33094;SDS011;19459;53.044;8.910;2024-02-21T08:58:41;59.40;;;28.23;;
33094;SDS011;19459;53.044;8.910;2024-02-21T09:01:07;58.85;;;27.02;;
33094;SDS011;19459;53.044;8.910;2024-02-21T09:03:36;56.30;;;26.77;;
33094;SDS011;19459;53.044;8.910;2024-02-21T09:06:03;61.60;;;25.83;;
33094;SDS011;19459;53.044;8.910;2024-02-21T09:08:33;58.92;;;25.52;;
33094;SDS011;19459;53.044;8.910;2024-02-21T09:10:59;57.53;;;24.90;;
33094;SDS011;19459;53.044;8.910;2024-02-21T09:13:26;53.72;;;26.98;;
33094;SDS011;19459;53.044;8.910;2024-02-21T09:15:52;53.90;;;26.13;;
33094;SDS011;19459;53.044;8.910;2024-02-21T09:18:19;56.67;;;26.35;;
33094;SDS011;19459;53.044;8.910;2024-02-21T09:20:45;53.40;;;24.67;;
33094;SDS011;19459;53.044;8.910;2024-02-21T09:23:11;51.50;;;25.92;;
33094;SDS011;19459;53.044;8.910;2024-02-21T09:25:37;51.90;;;24.30;;
33094;SDS011;19459;53.044;8.910;2024-02-21T09:28:03;54.08;;;26.20;;
33094;SDS011;19459;53.044;8.910;2024-02-21T09:30:31;51.25;;;23.70;;
33094;SDS011;19459;53.044;8.910;2024-02-21T09:32:57;45.17;;;21.92;;
33094;SDS011;19459;53.044;8.910;2024-02-21T09:35:24;46.08;;;21.85;;
33094;SDS011;19459;53.044;8.910;2024-02-21T09:37:52;42.08;;;20.63;;
33094;SDS011;19459;53.044;8.910;2024-02-21T09:40:18;41.53;;;22.13;;
33094;SDS011;19459;53.044;8.910;2024-02-21T09:42:45;39.42;;;21.27;;
33094;SDS011;19459;53.044;8.910;2024-02-21T09:45:23;39.00;;;20.92;;
33094;SDS011;19459;53.044;8.910;2024-02-21T09:50:27;44.63;;;22.83;;
33094;SDS011;19459;53.044;8.910;2024-02-21T09:52:54;44.75;;;20.67;;
33094;SDS011;19459;53.044;8.910;2024-02-21T09:55:21;39.33;;;21.23;;
33094;SDS011;19459;53.044;8.910;2024-02-21T09:57:52;45.88;;;19.10;;
33094;SDS011;19459;53.044;8.910;2024-02-21T10:00:18;38.83;;;20.70;;
33094;SDS011;19459;53.044;8.910;2024-02-21T10:02:49;43.47;;;20.80;;
33094;SDS011;19459;53.044;8.910;2024-02-21T10:05:15;40.90;;;21.75;;
33094;SDS011;19459;53.044;8.910;2024-02-21T10:07:44;43.45;;;20.48;;
33094;SDS011;19459;53.044;8.910;2024-02-21T10:10:11;39.78;;;19.17;;
33094;SDS011;19459;53.044;8.910;2024-02-21T10:12:36;40.60;;;21.08;;
33094;SDS011;19459;53.044;8.910;2024-02-21T10:15:23;40.47;;;21.80;;
33094;SDS011;19459;53.044;8.910;2024-02-21T10:17:57;43.10;;;21.40;;
33094;SDS011;19459;53.044;8.910;2024-02-21T10:20:25;39.10;;;20.00;;
33094;SDS011;19459;53.044;8.910;2024-02-21T10:23:01;46.05;;;20.48;;
33094;SDS011;19459;53.044;8.910;2024-02-21T10:25:28;40.65;;;20.77;;
33094;SDS011;19459;53.044;8.910;2024-02-21T10:27:55;30.92;;;18.35;;
33094;SDS011;19459;53.044;8.910;2024-02-21T10:30:22;38.55;;;20.85;;
33094;SDS011;19459;53.044;8.910;2024-02-21T10:32:51;36.78;;;19.02;;
33094;SDS011;19459;53.044;8.910;2024-02-21T10:35:28;32.03;;;18.58;;
33094;SDS011;19459;53.044;8.910;2024-02-21T10:37:55;42.67;;;18.45;;
33094;SDS011;19459;53.044;8.910;2024-02-21T10:40:25;37.35;;;17.83;;
33094;SDS011;19459;53.044;8.910;2024-02-21T10:42:59;29.00;;;18.13;;
33094;SDS011;19459;53.044;8.910;2024-02-21T10:45:28;37.25;;;18.98;;
33094;SDS011;19459;53.044;8.910;2024-02-21T10:48:22;38.28;;;18.10;;
33094;SDS011;19459;53.044;8.910;2024-02-21T10:56:26;33.05;;;17.27;;
33094;SDS011;19459;53.044;8.910;2024-02-21T10:59:00;31.20;;;15.98;;
33094;SDS011;19459;53.044;8.910;2024-02-21T11:01:30;34.00;;;16.80;;
33094;SDS011;19459;53.044;8.910;2024-02-21T11:03:58;35.40;;;17.13;;
33094;SDS011;19459;53.044;8.910;2024-02-21T11:06:27;34.28;;;16.00;;
33094;SDS011;19459;53.044;8.910;2024-02-21T11:11:28;27.35;;;14.75;;
33094;SDS011;19459;53.044;8.910;2024-02-21T11:14:03;29.65;;;14.07;;
33094;SDS011;19459;53.044;8.910;2024-02-21T11:16:37;29.90;;;15.32;;
33094;SDS011;19459;53.044;8.910;2024-02-21T11:19:06;28.95;;;13.20;;
33094;SDS011;19459;53.044;8.910;2024-02-21T11:21:36;20.90;;;13.15;;
33094;SDS011;19459;53.044;8.910;2024-02-21T11:24:03;26.35;;;13.18;;
33094;SDS011;19459;53.044;8.910;2024-02-21T11:26:30;23.40;;;15.13;;
33094;SDS011;19459;53.044;8.910;2024-02-21T11:28:57;23.30;;;13.57;;
33094;SDS011;19459;53.044;8.910;2024-02-21T11:31:43;31.33;;;14.20;;
33094;SDS011;19459;53.044;8.910;2024-02-21T11:34:12;28.70;;;13.80;;
33094;SDS011;19459;53.044;8.910;2024-02-21T11:36:51;24.35;;;12.45;;
33094;SDS011;19459;53.044;8.910;2024-02-21T11:39:21;28.63;;;11.85;;
33094;SDS011;19459;53.044;8.910;2024-02-21T11:42:06;21.73;;;12.82;;
33094;SDS011;19459;53.044;8.910;2024-02-21T11:44:33;19.85;;;12.43;;
33094;SDS011;19459;53.044;8.910;2024-02-21T11:47:00;22.48;;;11.02;;
33094;SDS011;19459;53.044;8.910;2024-02-21T11:49:28;24.73;;;12.30;;
33094;SDS011;19459;53.044;8.910;2024-02-21T11:51:58;18.88;;;10.52;;
33094;SDS011;19459;53.044;8.910;2024-02-21T11:54:32;22.52;;;12.07;;
33094;SDS011;19459;53.044;8.910;2024-02-21T11:56:59;23.02;;;12.63;;
33094;SDS011;19459;53.044;8.910;2024-02-21T11:59:26;27.02;;;11.32;;
33094;SDS011;19459;53.044;8.910;2024-02-21T12:01:54;16.17;;;9.75;;
33094;SDS011;19459;53.044;8.910;2024-02-21T12:04:20;23.20;;;10.88;;
33094;SDS011;19459;53.044;8.910;2024-02-21T12:06:48;15.70;;;8.75;;
33094;SDS011;19459;53.044;8.910;2024-02-21T12:09:17;15.73;;;8.70;;
33094;SDS011;19459;53.044;8.910;2024-02-21T12:11:44;24.02;;;9.93;;
33094;SDS011;19459;53.044;8.910;2024-02-21T12:14:11;25.73;;;9.98;;
33094;SDS011;19459;53.044;8.910;2024-02-21T12:16:42;22.17;;;9.30;;
33094;SDS011;19459;53.044;8.910;2024-02-21T12:19:12;25.50;;;11.02;;
33094;SDS011;19459;53.044;8.910;2024-02-21T12:21:38;21.13;;;9.60;;
33094;SDS011;19459;53.044;8.910;2024-02-21T12:24:15;20.95;;;8.65;;
33094;SDS011;19459;53.044;8.910;2024-02-21T12:26:48;16.85;;;7.95;;
33094;SDS011;19459;53.044;8.910;2024-02-21T12:29:15;17.88;;;7.57;;
33094;SDS011;19459;53.044;8.910;2024-02-21T12:31:41;16.45;;;6.57;;
33094;SDS011;19459;53.044;8.910;2024-02-21T12:34:06;19.50;;;6.78;;
33094;SDS011;19459;53.044;8.910;2024-02-21T12:36:35;20.30;;;8.05;;
33094;SDS011;19459;53.044;8.910;2024-02-21T12:39:12;15.27;;;7.82;;
33094;SDS011;19459;53.044;8.910;2024-02-21T12:41:39;14.90;;;7.63;;
33094;SDS011;19459;53.044;8.910;2024-02-21T12:44:06;11.55;;;6.97;;
33094;SDS011;19459;53.044;8.910;2024-02-21T12:46:33;16.00;;;8.23;;
33094;SDS011;19459;53.044;8.910;2024-02-21T12:49:02;18.38;;;7.70;;
33094;SDS011;19459;53.044;8.910;2024-02-21T12:51:29;15.63;;;6.85;;
33094;SDS011;19459;53.044;8.910;2024-02-21T12:53:59;12.88;;;6.57;;
33094;SDS011;19459;53.044;8.910;2024-02-21T12:56:25;13.93;;;6.75;;
33094;SDS011;19459;53.044;8.910;2024-02-21T12:58:56;17.75;;;6.25;;
33094;SDS011;19459;53.044;8.910;2024-02-21T13:01:22;14.45;;;6.55;;
33094;SDS011;19459;53.044;8.910;2024-02-21T13:03:48;17.25;;;6.55;;
33094;SDS011;19459;53.044;8.910;2024-02-21T13:06:14;15.57;;;7.82;;
33094;SDS011;19459;53.044;8.910;2024-02-21T13:08:39;12.73;;;5.95;;
33094;SDS011;19459;53.044;8.910;2024-02-21T13:11:06;12.88;;;7.32;;
33094;SDS011;19459;53.044;8.910;2024-02-21T13:13:32;15.85;;;7.85;;
33094;SDS011;19459;53.044;8.910;2024-02-21T13:15:58;14.93;;;8.68;;
33094;SDS011;19459;53.044;8.910;2024-02-21T13:18:24;13.60;;;7.95;;
33094;SDS011;19459;53.044;8.910;2024-02-21T13:20:50;12.95;;;8.05;;
33094;SDS011;19459;53.044;8.910;2024-02-21T13:23:16;17.10;;;7.97;;
33094;SDS011;19459;53.044;8.910;2024-02-21T13:25:42;16.55;;;9.40;;
33094;SDS011;19459;53.044;8.910;2024-02-21T13:28:09;15.48;;;8.73;;
33094;SDS011;19459;53.044;8.910;2024-02-21T13:30:35;13.77;;;9.13;;
33094;SDS011;19459;53.044;8.910;2024-02-21T13:33:01;12.73;;;8.38;;
33094;SDS011;19459;53.044;8.910;2024-02-21T13:35:28;13.13;;;8.23;;
33094;SDS011;19459;53.044;8.910;2024-02-21T13:37:54;12.10;;;8.20;;
33094;SDS011;19459;53.044;8.910;2024-02-21T13:40:19;12.65;;;8.27;;
33094;SDS011;19459;53.044;8.910;2024-02-21T13:42:45;14.43;;;8.70;;
33094;SDS011;19459;53.044;8.910;2024-02-21T13:45:11;11.95;;;9.30;;
33094;SDS011;19459;53.044;8.910;2024-02-21T13:47:37;16.33;;;8.82;;
33094;SDS011;19459;53.044;8.910;2024-02-21T13:50:04;15.07;;;8.77;;
33094;SDS011;19459;53.044;8.910;2024-02-21T13:52:34;14.35;;;9.27;;
33094;SDS011;19459;53.044;8.910;2024-02-21T13:55:00;13.77;;;9.80;;
33094;SDS011;19459;53.044;8.910;2024-02-21T13:57:26;19.25;;;10.65;;
33094;SDS011;19459;53.044;8.910;2024-02-21T13:59:51;15.68;;;10.88;;
33094;SDS011;19459;53.044;8.910;2024-02-21T14:02:17;17.63;;;10.68;;
33094;SDS011;19459;53.044;8.910;2024-02-21T14:04:43;12.15;;;9.90;;
33094;SDS011;19459;53.044;8.910;2024-02-21T14:07:09;19.10;;;10.15;;
33094;SDS011;19459;53.044;8.910;2024-02-21T14:09:35;14.63;;;10.40;;
33094;SDS011;19459;53.044;8.910;2024-02-21T14:12:01;15.05;;;10.43;;
33094;SDS011;19459;53.044;8.910;2024-02-21T14:14:27;22.75;;;11.40;;
33094;SDS011;19459;53.044;8.910;2024-02-21T14:16:53;14.68;;;10.40;;
33094;SDS011;19459;53.044;8.910;2024-02-21T14:19:18;16.88;;;9.00;;
33094;SDS011;19459;53.044;8.910;2024-02-21T14:21:44;12.82;;;8.63;;
33094;SDS011;19459;53.044;8.910;2024-02-21T14:24:10;13.80;;;9.00;;
33094;SDS011;19459;53.044;8.910;2024-02-21T14:26:37;18.70;;;8.38;;
33094;SDS011;19459;53.044;8.910;2024-02-21T14:29:06;13.68;;;7.85;;
33094;SDS011;19459;53.044;8.910;2024-02-21T14:31:32;12.57;;;7.53;;
33094;SDS011;19459;53.044;8.910;2024-02-21T14:33:58;13.77;;;7.50;;